Terminal Aerodrome Forecast
Issued by NWS Caribou, ME

Home | Current Version | Previous Version | Text Only | Print | Product List | Glossary On
Versions: 1 2 3 4 5 6 7 8 9 10 11 12 13 14 15 16 17 18 19
000
FTUS41 KCAR 231720
TAFCAR
TAF
KCAR 231720Z 2318/2418 16008KT P6SM BKN220
     FM240100 18011KT P6SM OVC015
     FM240300 19011KT 1SM -SN OVC011
     FM240700 22009KT P6SM BKN014
     FM241300 30011KT P6SM BKN045
     FM241400 31012KT P6SM SCT060=

USA.gov is the U.S. government's official web portal to all federal, state and local government web resources and services.